TimeMST,TemperatureF,Dew PointF,Humidity,Sea Level PressureIn,VisibilityMPH,Wind Direction,Wind SpeedMPH,Gust SpeedMPH,PrecipitationIn,Events,Conditions,WindDirDegrees,DateUTC
12:53 AM,30.9,21.0,67,30.01,10.0,Calm,Calm,-,N/A,,Mostly Cloudy,0,2013-02-08 07:53:00
1:53 AM,41.0,18.0,40,29.94,10.0,SE,15.0,20.7,N/A,,Overcast,130,2013-02-08 08:53:00
2:53 AM,41.0,17.1,38,29.91,10.0,SE,16.1,-,N/A,,Mostly Cloudy,140,2013-02-08 09:53:00
3:53 AM,41.0,17.1,38,29.90,10.0,SSE,17.3,25.3,N/A,,Mostly Cloudy,150,2013-02-08 10:53:00
4:53 AM,41.0,18.0,40,29.87,10.0,SE,25.3,34.5,N/A,,Clear,140,2013-02-08 11:53:00
5:53 AM,39.9,19.0,43,29.89,10.0,SE,18.4,25.3,N/A,,Clear,140,2013-02-08 12:53:00
6:53 AM,41.0,19.9,43,29.88,10.0,SE,21.9,34.5,N/A,,Clear,140,2013-02-08 13:53:00
7:53 AM,39.9,19.9,45,29.89,10.0,SE,23.0,34.5,N/A,,Clear,140,2013-02-08 14:53:00
8:53 AM,41.0,21.0,45,29.88,10.0,SE,25.3,32.2,N/A,,Mostly Cloudy,130,2013-02-08 15:53:00
9:53 AM,45.0,21.9,40,29.86,10.0,SE,23.0,39.1,N/A,,Clear,130,2013-02-08 16:53:00
10:53 AM,48.0,24.1,39,29.81,10.0,SE,25.3,35.7,N/A,,Clear,140,2013-02-08 17:53:00
11:53 AM,50.0,23.0,35,29.77,10.0,SE,23.0,32.2,N/A,,Clear,140,2013-02-08 18:53:00
12:53 PM,53.1,23.0,31,29.70,10.0,SSE,19.6,29.9,N/A,,Clear,150,2013-02-08 19:53:00
1:53 PM,52.0,21.9,31,29.63,10.0,SSE,18.4,29.9,N/A,,Scattered Clouds,160,2013-02-08 20:53:00
2:26 PM,55.4,15.8,21,29.72,10.0,SSW,24.2,34.5,N/A,,Scattered Clouds,210,2013-02-08 21:26:00
2:53 PM,55.0,16.0,22,29.59,10.0,SSW,29.9,35.7,N/A,,Partly Cloudy,210,2013-02-08 21:53:00
3:53 PM,53.1,15.1,22,29.59,10.0,SSW,31.1,40.3,N/A,,Clear,210,2013-02-08 22:53:00
4:53 PM,50.0,12.9,23,29.59,10.0,SSW,29.9,38.0,N/A,,Clear,210,2013-02-08 23:53:00
5:53 PM,45.0,17.1,33,29.61,10.0,SSW,15.0,-,N/A,,Clear,210,2013-02-09 00:53:00
6:53 PM,44.1,12.0,27,29.62,10.0,SSW,19.6,-,N/A,,Clear,200,2013-02-09 01:53:00
7:53 PM,39.0,15.1,38,29.65,10.0,SSW,11.5,-,N/A,,Clear,210,2013-02-09 02:53:00
8:53 PM,37.9,12.9,36,29.66,10.0,SW,13.8,-,N/A,,Clear,220,2013-02-09 03:53:00
9:53 PM,36.0,17.1,46,29.68,10.0,SSW,12.7,-,N/A,,Clear,200,2013-02-09 04:53:00
10:53 PM,35.1,19.9,54,29.68,10.0,SSW,9.2,-,N/A,,Clear,210,2013-02-09 05:53:00
11:53 PM,28.9,19.9,69,29.67,10.0,Calm,Calm,-,N/A,,Clear,0,2013-02-09 06:53:00